Kettering, Ohio
Current Conditions -  °F | °C
As of 2:53 PM on Saturday 25 Oct 2014 (Local Time) from KMGY Reporting Station
Haze Haze  
Wind Chill: 21°   Ceiling: Unl
Heat Index: 21°   Visibility: 6mi
Dew Point: 13°   Wind: 13mph
Humidity: 61%   Direction: 240°WSW
Pressure: 29.9"   Gusts: NA
Location:  39.7°N, 84.16°W
Report Text: KMGY 251853Z AUTO 24011KT 6SM HZ CLR 21/13 A2990 RMK AO2 SLP123 T02110133
Loading
Personal Weather Stations






























Interactive Weather Map
Tropical Storm Tracking
New forecast layout! Learn more

10-Day Weather Forecast

Advertisements
Track Severe Weather on mobile